sensor_id;sensor_type;location;lat;lon;timestamp;P1;durP1;ratioP1;P2;durP2;ratioP2
71174;SDS011;58876;51.994;4.472;2022-11-11T00:01:04;17.33;;;17.33;;
71174;SDS011;58876;51.994;4.472;2022-11-11T00:03:31;18.11;;;18.06;;
71174;SDS011;58876;51.994;4.472;2022-11-11T00:06:00;17.97;;;17.96;;
71174;SDS011;58876;51.994;4.472;2022-11-11T00:08:27;17.68;;;17.68;;
71174;SDS011;58876;51.994;4.472;2022-11-11T00:10:58;17.97;;;17.97;;
71174;SDS011;58876;51.994;4.472;2022-11-11T00:13:24;17.32;;;17.32;;
71174;SDS011;58876;51.994;4.472;2022-11-11T00:15:50;17.85;;;17.85;;
71174;SDS011;58876;51.994;4.472;2022-11-11T00:18:15;17.90;;;17.90;;
71174;SDS011;58876;51.994;4.472;2022-11-11T00:20:59;18.09;;;18.09;;
71174;SDS011;58876;51.994;4.472;2022-11-11T00:23:43;18.21;;;18.18;;
71174;SDS011;58876;51.994;4.472;2022-11-11T00:26:28;19.20;;;19.20;;
71174;SDS011;58876;51.994;4.472;2022-11-11T00:28:53;18.67;;;18.67;;
71174;SDS011;58876;51.994;4.472;2022-11-11T00:31:18;19.55;;;19.55;;
71174;SDS011;58876;51.994;4.472;2022-11-11T00:33:46;20.06;;;20.02;;
71174;SDS011;58876;51.994;4.472;2022-11-11T00:36:11;20.10;;;19.91;;
71174;SDS011;58876;51.994;4.472;2022-11-11T00:38:36;19.31;;;19.30;;
71174;SDS011;58876;51.994;4.472;2022-11-11T00:41:15;19.74;;;19.71;;
71174;SDS011;58876;51.994;4.472;2022-11-11T00:43:44;19.54;;;19.53;;
71174;SDS011;58876;51.994;4.472;2022-11-11T00:46:10;20.04;;;20.04;;
71174;SDS011;58876;51.994;4.472;2022-11-11T00:48:56;20.26;;;20.26;;
71174;SDS011;58876;51.994;4.472;2022-11-11T00:51:40;20.68;;;20.68;;
71174;SDS011;58876;51.994;4.472;2022-11-11T00:54:06;21.35;;;21.21;;
71174;SDS011;58876;51.994;4.472;2022-11-11T00:56:32;20.00;;;20.00;;
71174;SDS011;58876;51.994;4.472;2022-11-11T00:59:00;20.09;;;19.98;;
71174;SDS011;58876;51.994;4.472;2022-11-11T01:01:26;19.96;;;19.95;;
71174;SDS011;58876;51.994;4.472;2022-11-11T01:03:52;19.95;;;19.95;;
71174;SDS011;58876;51.994;4.472;2022-11-11T01:06:17;21.03;;;20.83;;
71174;SDS011;58876;51.994;4.472;2022-11-11T01:08:43;20.09;;;20.07;;
71174;SDS011;58876;51.994;4.472;2022-11-11T01:11:12;20.21;;;20.20;;
71174;SDS011;58876;51.994;4.472;2022-11-11T01:13:39;21.31;;;21.09;;
71174;SDS011;58876;51.994;4.472;2022-11-11T01:16:06;20.15;;;20.15;;
71174;SDS011;58876;51.994;4.472;2022-11-11T01:18:33;21.36;;;21.12;;
71174;SDS011;58876;51.994;4.472;2022-11-11T01:20:59;21.69;;;21.27;;
71174;SDS011;58876;51.994;4.472;2022-11-11T01:23:30;22.04;;;21.92;;
71174;SDS011;58876;51.994;4.472;2022-11-11T01:26:12;22.00;;;21.80;;
71174;SDS011;58876;51.994;4.472;2022-11-11T01:28:38;22.53;;;22.24;;
71174;SDS011;58876;51.994;4.472;2022-11-11T01:31:05;21.88;;;21.77;;
71174;SDS011;58876;51.994;4.472;2022-11-11T01:33:33;22.37;;;22.34;;
71174;SDS011;58876;51.994;4.472;2022-11-11T01:36:09;23.18;;;22.88;;
71174;SDS011;58876;51.994;4.472;2022-11-11T01:38:37;24.07;;;23.63;;
71174;SDS011;58876;51.994;4.472;2022-11-11T01:41:05;23.24;;;23.10;;
71174;SDS011;58876;51.994;4.472;2022-11-11T01:43:54;22.96;;;22.87;;
71174;SDS011;58876;51.994;4.472;2022-11-11T01:46:23;22.77;;;22.62;;
71174;SDS011;58876;51.994;4.472;2022-11-11T01:48:54;22.97;;;22.71;;
71174;SDS011;58876;51.994;4.472;2022-11-11T01:51:47;23.48;;;23.10;;
71174;SDS011;58876;51.994;4.472;2022-11-11T01:54:32;23.75;;;23.64;;
71174;SDS011;58876;51.994;4.472;2022-11-11T01:57:13;23.28;;;22.99;;
71174;SDS011;58876;51.994;4.472;2022-11-11T01:59:46;22.99;;;22.48;;
71174;SDS011;58876;51.994;4.472;2022-11-11T02:02:26;23.17;;;22.84;;
71174;SDS011;58876;51.994;4.472;2022-11-11T02:04:59;23.02;;;22.54;;
71174;SDS011;58876;51.994;4.472;2022-11-11T02:07:47;22.90;;;22.76;;
71174;SDS011;58876;51.994;4.472;2022-11-11T02:10:14;23.76;;;23.44;;
71174;SDS011;58876;51.994;4.472;2022-11-11T02:12:45;23.91;;;23.31;;
71174;SDS011;58876;51.994;4.472;2022-11-11T02:15:29;23.80;;;23.16;;
71174;SDS011;58876;51.994;4.472;2022-11-11T02:17:55;24.05;;;23.68;;
71174;SDS011;58876;51.994;4.472;2022-11-11T02:20:22;23.99;;;23.77;;
71174;SDS011;58876;51.994;4.472;2022-11-11T02:22:53;24.15;;;24.02;;
71174;SDS011;58876;51.994;4.472;2022-11-11T02:25:26;24.16;;;23.88;;
71174;SDS011;58876;51.994;4.472;2022-11-11T02:27:57;24.36;;;24.07;;
71174;SDS011;58876;51.994;4.472;2022-11-11T02:30:27;23.21;;;23.14;;
71174;SDS011;58876;51.994;4.472;2022-11-11T02:32:53;23.79;;;23.54;;
71174;SDS011;58876;51.994;4.472;2022-11-11T02:37:58;25.43;;;25.19;;
71174;SDS011;58876;51.994;4.472;2022-11-11T02:40:35;25.21;;;25.10;;
71174;SDS011;58876;51.994;4.472;2022-11-11T02:43:03;25.94;;;25.47;;
71174;SDS011;58876;51.994;4.472;2022-11-11T02:45:29;26.06;;;25.94;;
71174;SDS011;58876;51.994;4.472;2022-11-11T02:47:55;26.39;;;26.05;;
71174;SDS011;58876;51.994;4.472;2022-11-11T02:50:21;26.16;;;26.02;;
71174;SDS011;58876;51.994;4.472;2022-11-11T02:52:46;26.65;;;26.09;;
71174;SDS011;58876;51.994;4.472;2022-11-11T02:55:12;26.69;;;26.25;;
71174;SDS011;58876;51.994;4.472;2022-11-11T02:57:38;26.18;;;26.05;;
71174;SDS011;58876;51.994;4.472;2022-11-11T03:00:04;27.48;;;27.20;;
71174;SDS011;58876;51.994;4.472;2022-11-11T03:02:30;26.64;;;26.48;;
71174;SDS011;58876;51.994;4.472;2022-11-11T03:04:56;25.88;;;25.66;;
71174;SDS011;58876;51.994;4.472;2022-11-11T03:07:23;26.14;;;25.74;;
71174;SDS011;58876;51.994;4.472;2022-11-11T03:09:49;26.39;;;26.06;;
71174;SDS011;58876;51.994;4.472;2022-11-11T03:12:15;27.68;;;27.18;;
71174;SDS011;58876;51.994;4.472;2022-11-11T03:14:41;26.72;;;26.15;;
71174;SDS011;58876;51.994;4.472;2022-11-11T03:17:07;26.67;;;26.22;;
71174;SDS011;58876;51.994;4.472;2022-11-11T03:19:50;26.17;;;25.97;;
71174;SDS011;58876;51.994;4.472;2022-11-11T03:22:16;26.71;;;26.16;;
71174;SDS011;58876;51.994;4.472;2022-11-11T03:24:41;26.10;;;25.73;;
71174;SDS011;58876;51.994;4.472;2022-11-11T03:27:25;26.07;;;25.72;;
71174;SDS011;58876;51.994;4.472;2022-11-11T03:29:51;26.79;;;26.30;;
71174;SDS011;58876;51.994;4.472;2022-11-11T03:32:16;26.38;;;25.93;;
71174;SDS011;58876;51.994;4.472;2022-11-11T03:34:42;26.27;;;25.88;;
71174;SDS011;58876;51.994;4.472;2022-11-11T03:37:08;26.05;;;25.93;;
71174;SDS011;58876;51.994;4.472;2022-11-11T03:39:54;26.23;;;25.85;;
71174;SDS011;58876;51.994;4.472;2022-11-11T03:42:19;25.58;;;25.35;;
71174;SDS011;58876;51.994;4.472;2022-11-11T03:44:45;25.03;;;24.69;;
71174;SDS011;58876;51.994;4.472;2022-11-11T03:47:10;25.64;;;25.41;;
71174;SDS011;58876;51.994;4.472;2022-11-11T03:49:36;25.99;;;25.87;;
71174;SDS011;58876;51.994;4.472;2022-11-11T03:52:01;25.64;;;25.34;;
71174;SDS011;58876;51.994;4.472;2022-11-11T03:54:27;25.22;;;25.00;;
71174;SDS011;58876;51.994;4.472;2022-11-11T03:56:52;24.95;;;24.64;;
71174;SDS011;58876;51.994;4.472;2022-11-11T03:59:38;24.67;;;24.56;;
71174;SDS011;58876;51.994;4.472;2022-11-11T04:02:04;25.43;;;25.14;;
71174;SDS011;58876;51.994;4.472;2022-11-11T04:04:48;25.93;;;25.35;;
71174;SDS011;58876;51.994;4.472;2022-11-11T04:07:32;25.36;;;25.28;;
71174;SDS011;58876;51.994;4.472;2022-11-11T04:10:16;27.09;;;26.51;;
71174;SDS011;58876;51.994;4.472;2022-11-11T04:12:47;27.02;;;26.69;;
71174;SDS011;58876;51.994;4.472;2022-11-11T04:15:32;26.30;;;26.22;;
71174;SDS011;58876;51.994;4.472;2022-11-11T04:18:16;26.71;;;26.37;;
71174;SDS011;58876;51.994;4.472;2022-11-11T04:20:42;26.81;;;26.38;;
71174;SDS011;58876;51.994;4.472;2022-11-11T04:23:26;27.28;;;26.58;;
71174;SDS011;58876;51.994;4.472;2022-11-11T04:25:51;26.99;;;26.76;;
71174;SDS011;58876;51.994;4.472;2022-11-11T04:28:19;26.64;;;26.51;;
71174;SDS011;58876;51.994;4.472;2022-11-11T04:31:03;28.19;;;27.62;;
71174;SDS011;58876;51.994;4.472;2022-11-11T04:33:29;27.84;;;27.31;;
71174;SDS011;58876;51.994;4.472;2022-11-11T04:35:54;27.10;;;26.90;;
71174;SDS011;58876;51.994;4.472;2022-11-11T04:38:20;27.23;;;27.07;;
71174;SDS011;58876;51.994;4.472;2022-11-11T04:41:04;28.26;;;27.64;;
71174;SDS011;58876;51.994;4.472;2022-11-11T04:43:30;27.93;;;27.73;;
71174;SDS011;58876;51.994;4.472;2022-11-11T04:45:59;27.96;;;27.66;;
71174;SDS011;58876;51.994;4.472;2022-11-11T04:48:25;28.05;;;27.80;;
71174;SDS011;58876;51.994;4.472;2022-11-11T04:50:51;27.65;;;27.32;;
71174;SDS011;58876;51.994;4.472;2022-11-11T04:53:16;27.31;;;26.88;;
71174;SDS011;58876;51.994;4.472;2022-11-11T04:55:42;27.54;;;27.30;;
71174;SDS011;58876;51.994;4.472;2022-11-11T04:58:32;26.42;;;26.39;;
71174;SDS011;58876;51.994;4.472;2022-11-11T05:00:59;26.55;;;26.25;;
71174;SDS011;58876;51.994;4.472;2022-11-11T05:03:25;25.66;;;25.58;;
71174;SDS011;58876;51.994;4.472;2022-11-11T05:05:55;25.87;;;25.69;;
71174;SDS011;58876;51.994;4.472;2022-11-11T05:08:42;25.89;;;25.65;;
71174;SDS011;58876;51.994;4.472;2022-11-11T05:11:22;25.54;;;25.33;;
71174;SDS011;58876;51.994;4.472;2022-11-11T05:13:50;25.11;;;25.10;;
71174;SDS011;58876;51.994;4.472;2022-11-11T05:16:37;25.47;;;25.30;;
71174;SDS011;58876;51.994;4.472;2022-11-11T05:19:24;25.22;;;25.14;;
71174;SDS011;58876;51.994;4.472;2022-11-11T05:22:15;25.55;;;25.39;;
71174;SDS011;58876;51.994;4.472;2022-11-11T05:24:43;26.11;;;25.50;;
71174;SDS011;58876;51.994;4.472;2022-11-11T05:27:28;26.46;;;26.09;;
71174;SDS011;58876;51.994;4.472;2022-11-11T05:29:53;25.59;;;25.30;;
71174;SDS011;58876;51.994;4.472;2022-11-11T05:32:19;24.68;;;24.51;;
71174;SDS011;58876;51.994;4.472;2022-11-11T05:34:46;24.65;;;24.39;;
71174;SDS011;58876;51.994;4.472;2022-11-11T05:37:12;25.45;;;25.28;;
71174;SDS011;58876;51.994;4.472;2022-11-11T05:39:38;25.46;;;25.16;;
71174;SDS011;58876;51.994;4.472;2022-11-11T05:42:03;26.34;;;25.97;;
71174;SDS011;58876;51.994;4.472;2022-11-11T05:44:29;25.47;;;25.20;;
71174;SDS011;58876;51.994;4.472;2022-11-11T05:46:55;26.08;;;25.57;;
71174;SDS011;58876;51.994;4.472;2022-11-11T05:49:20;26.54;;;26.14;;
71174;SDS011;58876;51.994;4.472;2022-11-11T05:51:47;27.27;;;26.62;;
71174;SDS011;58876;51.994;4.472;2022-11-11T05:54:12;25.92;;;25.59;;
71174;SDS011;58876;51.994;4.472;2022-11-11T05:56:38;25.67;;;25.45;;
71174;SDS011;58876;51.994;4.472;2022-11-11T05:59:05;26.28;;;26.08;;
71174;SDS011;58876;51.994;4.472;2022-11-11T06:01:31;26.08;;;25.99;;
71174;SDS011;58876;51.994;4.472;2022-11-11T06:03:57;25.91;;;25.51;;
71174;SDS011;58876;51.994;4.472;2022-11-11T06:06:23;25.68;;;25.68;;
71174;SDS011;58876;51.994;4.472;2022-11-11T06:08:48;26.24;;;26.07;;
71174;SDS011;58876;51.994;4.472;2022-11-11T06:11:13;26.07;;;25.83;;
71174;SDS011;58876;51.994;4.472;2022-11-11T06:13:39;28.71;;;28.35;;
71174;SDS011;58876;51.994;4.472;2022-11-11T06:16:04;28.38;;;28.27;;
71174;SDS011;58876;51.994;4.472;2022-11-11T06:18:30;27.90;;;27.01;;
71174;SDS011;58876;51.994;4.472;2022-11-11T06:20:56;28.27;;;27.47;;
71174;SDS011;58876;51.994;4.472;2022-11-11T06:23:23;26.79;;;26.28;;
71174;SDS011;58876;51.994;4.472;2022-11-11T06:25:51;26.86;;;26.64;;
71174;SDS011;58876;51.994;4.472;2022-11-11T06:28:35;26.30;;;26.10;;
71174;SDS011;58876;51.994;4.472;2022-11-11T06:31:01;25.85;;;25.35;;
71174;SDS011;58876;51.994;4.472;2022-11-11T06:33:29;25.82;;;25.78;;
71174;SDS011;58876;51.994;4.472;2022-11-11T06:35:55;25.96;;;25.74;;
71174;SDS011;58876;51.994;4.472;2022-11-11T06:38:20;26.99;;;26.56;;
71174;SDS011;58876;51.994;4.472;2022-11-11T06:40:46;26.21;;;25.75;;
71174;SDS011;58876;51.994;4.472;2022-11-11T06:43:12;27.25;;;26.56;;
71174;SDS011;58876;51.994;4.472;2022-11-11T06:45:37;26.12;;;25.82;;
71174;SDS011;58876;51.994;4.472;2022-11-11T06:48:03;26.78;;;26.12;;
71174;SDS011;58876;51.994;4.472;2022-11-11T06:50:30;26.82;;;26.27;;
71174;SDS011;58876;51.994;4.472;2022-11-11T06:53:02;25.17;;;25.09;;
71174;SDS011;58876;51.994;4.472;2022-11-11T06:55:32;25.46;;;25.39;;
71174;SDS011;58876;51.994;4.472;2022-11-11T06:58:09;25.34;;;25.14;;
71174;SDS011;58876;51.994;4.472;2022-11-11T07:00:43;25.61;;;24.81;;
71174;SDS011;58876;51.994;4.472;2022-11-11T07:03:11;24.63;;;24.44;;
71174;SDS011;58876;51.994;4.472;2022-11-11T07:05:38;25.46;;;24.82;;
71174;SDS011;58876;51.994;4.472;2022-11-11T07:08:07;23.87;;;23.83;;
71174;SDS011;58876;51.994;4.472;2022-11-11T07:10:35;24.35;;;24.18;;
71174;SDS011;58876;51.994;4.472;2022-11-11T07:13:03;25.09;;;25.07;;
71174;SDS011;58876;51.994;4.472;2022-11-11T07:15:29;25.59;;;25.50;;
71174;SDS011;58876;51.994;4.472;2022-11-11T07:17:55;26.95;;;26.95;;
71174;SDS011;58876;51.994;4.472;2022-11-11T07:20:20;24.96;;;24.90;;
71174;SDS011;58876;51.994;4.472;2022-11-11T07:22:46;24.87;;;24.55;;
71174;SDS011;58876;51.994;4.472;2022-11-11T07:25:12;26.11;;;25.51;;
71174;SDS011;58876;51.994;4.472;2022-11-11T07:27:38;24.92;;;24.80;;
71174;SDS011;58876;51.994;4.472;2022-11-11T07:30:06;25.36;;;25.32;;
71174;SDS011;58876;51.994;4.472;2022-11-11T07:32:32;25.47;;;25.39;;
71174;SDS011;58876;51.994;4.472;2022-11-11T07:34:59;26.28;;;25.91;;
71174;SDS011;58876;51.994;4.472;2022-11-11T07:37:24;25.47;;;25.43;;
71174;SDS011;58876;51.994;4.472;2022-11-11T07:39:49;25.79;;;25.44;;
71174;SDS011;58876;51.994;4.472;2022-11-11T07:42:15;25.88;;;25.63;;
71174;SDS011;58876;51.994;4.472;2022-11-11T07:44:40;25.98;;;25.67;;
71174;SDS011;58876;51.994;4.472;2022-11-11T07:47:06;25.72;;;25.13;;
71174;SDS011;58876;51.994;4.472;2022-11-11T07:49:33;25.93;;;25.66;;
71174;SDS011;58876;51.994;4.472;2022-11-11T07:51:58;25.50;;;25.39;;
71174;SDS011;58876;51.994;4.472;2022-11-11T07:54:24;26.48;;;25.99;;
71174;SDS011;58876;51.994;4.472;2022-11-11T07:56:49;26.07;;;25.55;;
71174;SDS011;58876;51.994;4.472;2022-11-11T07:59:15;26.34;;;25.97;;
71174;SDS011;58876;51.994;4.472;2022-11-11T08:01:40;25.44;;;25.20;;
71174;SDS011;58876;51.994;4.472;2022-11-11T08:04:06;26.32;;;25.86;;
71174;SDS011;58876;51.994;4.472;2022-11-11T08:06:31;25.94;;;25.26;;
71174;SDS011;58876;51.994;4.472;2022-11-11T08:08:57;25.22;;;24.97;;
71174;SDS011;58876;51.994;4.472;2022-11-11T08:11:22;25.02;;;24.89;;
71174;SDS011;58876;51.994;4.472;2022-11-11T08:14:07;26.18;;;25.93;;
71174;SDS011;58876;51.994;4.472;2022-11-11T08:16:33;26.66;;;26.32;;
71174;SDS011;58876;51.994;4.472;2022-11-11T08:18:59;27.81;;;27.12;;
71174;SDS011;58876;51.994;4.472;2022-11-11T08:21:25;26.72;;;26.20;;
71174;SDS011;58876;51.994;4.472;2022-11-11T08:23:51;27.85;;;27.17;;
71174;SDS011;58876;51.994;4.472;2022-11-11T08:26:17;28.17;;;27.62;;
71174;SDS011;58876;51.994;4.472;2022-11-11T08:28:43;28.06;;;27.42;;
71174;SDS011;58876;51.994;4.472;2022-11-11T08:31:09;28.62;;;27.99;;
71174;SDS011;58876;51.994;4.472;2022-11-11T08:33:35;28.72;;;27.97;;
71174;SDS011;58876;51.994;4.472;2022-11-11T08:36:02;28.68;;;27.94;;
71174;SDS011;58876;51.994;4.472;2022-11-11T08:38:29;28.39;;;27.90;;
71174;SDS011;58876;51.994;4.472;2022-11-11T08:40:58;29.65;;;28.54;;
71174;SDS011;58876;51.994;4.472;2022-11-11T08:43:24;28.03;;;27.42;;
71174;SDS011;58876;51.994;4.472;2022-11-11T08:45:53;28.06;;;27.56;;
71174;SDS011;58876;51.994;4.472;2022-11-11T08:48:19;28.89;;;28.19;;
71174;SDS011;58876;51.994;4.472;2022-11-11T08:50:45;29.32;;;28.67;;
71174;SDS011;58876;51.994;4.472;2022-11-11T08:53:10;27.80;;;27.39;;
71174;SDS011;58876;51.994;4.472;2022-11-11T08:55:36;28.57;;;28.07;;
71174;SDS011;58876;51.994;4.472;2022-11-11T08:58:03;28.76;;;27.86;;
71174;SDS011;58876;51.994;4.472;2022-11-11T09:00:30;28.94;;;28.11;;
71174;SDS011;58876;51.994;4.472;2022-11-11T09:03:01;28.03;;;27.71;;
71174;SDS011;58876;51.994;4.472;2022-11-11T09:05:29;27.74;;;27.60;;
71174;SDS011;58876;51.994;4.472;2022-11-11T09:07:55;27.75;;;27.61;;
71174;SDS011;58876;51.994;4.472;2022-11-11T09:10:24;28.36;;;27.99;;
71174;SDS011;58876;51.994;4.472;2022-11-11T09:12:54;27.47;;;27.12;;
71174;SDS011;58876;51.994;4.472;2022-11-11T09:15:20;28.74;;;28.21;;
71174;SDS011;58876;51.994;4.472;2022-11-11T09:17:46;28.57;;;28.32;;
71174;SDS011;58876;51.994;4.472;2022-11-11T09:20:11;27.76;;;27.49;;
71174;SDS011;58876;51.994;4.472;2022-11-11T09:22:43;27.22;;;27.19;;
71174;SDS011;58876;51.994;4.472;2022-11-11T09:25:10;26.69;;;26.68;;
71174;SDS011;58876;51.994;4.472;2022-11-11T09:27:36;27.34;;;27.05;;
71174;SDS011;58876;51.994;4.472;2022-11-11T09:30:02;27.22;;;27.10;;
71174;SDS011;58876;51.994;4.472;2022-11-11T09:32:28;26.54;;;26.52;;
71174;SDS011;58876;51.994;4.472;2022-11-11T09:34:53;27.50;;;27.31;;
71174;SDS011;58876;51.994;4.472;2022-11-11T09:37:22;27.58;;;27.42;;
71174;SDS011;58876;51.994;4.472;2022-11-11T09:39:48;27.73;;;27.55;;
71174;SDS011;58876;51.994;4.472;2022-11-11T09:42:17;26.83;;;26.71;;
71174;SDS011;58876;51.994;4.472;2022-11-11T09:45:29;26.78;;;26.54;;
71174;SDS011;58876;51.994;4.472;2022-11-11T09:48:25;26.94;;;26.79;;
71174;SDS011;58876;51.994;4.472;2022-11-11T09:51:27;25.94;;;25.89;;
71174;SDS011;58876;51.994;4.472;2022-11-11T09:53:58;26.67;;;26.60;;
71174;SDS011;58876;51.994;4.472;2022-11-11T09:56:31;26.79;;;26.65;;
71174;SDS011;58876;51.994;4.472;2022-11-11T09:59:01;25.39;;;25.25;;
71174;SDS011;58876;51.994;4.472;2022-11-11T10:01:37;24.76;;;24.70;;
71174;SDS011;58876;51.994;4.472;2022-11-11T10:04:16;23.46;;;23.46;;
71174;SDS011;58876;51.994;4.472;2022-11-11T10:06:56;21.99;;;21.98;;
71174;SDS011;58876;51.994;4.472;2022-11-11T10:09:31;22.24;;;22.24;;
71174;SDS011;58876;51.994;4.472;2022-11-11T10:12:18;22.53;;;22.53;;
71174;SDS011;58876;51.994;4.472;2022-11-11T10:14:53;22.77;;;22.55;;
71174;SDS011;58876;51.994;4.472;2022-11-11T10:22:44;21.12;;;21.09;;
71174;SDS011;58876;51.994;4.472;2022-11-11T10:27:45;19.23;;;19.22;;
71174;SDS011;58876;51.994;4.472;2022-11-11T10:30:15;18.73;;;18.68;;
71174;SDS011;58876;51.994;4.472;2022-11-11T10:32:43;18.42;;;18.36;;
71174;SDS011;58876;51.994;4.472;2022-11-11T10:35:18;19.40;;;19.40;;
71174;SDS011;58876;51.994;4.472;2022-11-11T10:37:55;19.00;;;18.95;;
71174;SDS011;58876;51.994;4.472;2022-11-11T10:40:41;20.25;;;20.19;;
71174;SDS011;58876;51.994;4.472;2022-11-11T10:43:16;20.40;;;20.39;;
71174;SDS011;58876;51.994;4.472;2022-11-11T10:45:51;20.21;;;20.14;;
71174;SDS011;58876;51.994;4.472;2022-11-11T10:48:34;19.35;;;19.30;;
71174;SDS011;58876;51.994;4.472;2022-11-11T10:51:19;19.45;;;19.40;;
71174;SDS011;58876;51.994;4.472;2022-11-11T10:59:28;17.91;;;17.83;;
71174;SDS011;58876;51.994;4.472;2022-11-11T11:02:20;17.81;;;17.81;;
71174;SDS011;58876;51.994;4.472;2022-11-11T11:04:51;18.91;;;18.70;;
71174;SDS011;58876;51.994;4.472;2022-11-11T11:07:20;18.40;;;18.23;;
71174;SDS011;58876;51.994;4.472;2022-11-11T11:09:57;17.81;;;17.75;;
71174;SDS011;58876;51.994;4.472;2022-11-11T11:12:41;18.77;;;18.77;;
71174;SDS011;58876;51.994;4.472;2022-11-11T11:15:22;18.38;;;18.26;;
71174;SDS011;58876;51.994;4.472;2022-11-11T11:18:04;18.42;;;18.41;;
71174;SDS011;58876;51.994;4.472;2022-11-11T11:20:33;17.55;;;17.50;;
71174;SDS011;58876;51.994;4.472;2022-11-11T11:22:59;17.39;;;17.33;;
71174;SDS011;58876;51.994;4.472;2022-11-11T11:25:26;17.15;;;17.12;;
71174;SDS011;58876;51.994;4.472;2022-11-11T11:28:03;16.62;;;16.58;;
71174;SDS011;58876;51.994;4.472;2022-11-11T11:30:31;17.51;;;17.45;;
71174;SDS011;58876;51.994;4.472;2022-11-11T11:33:00;17.72;;;17.72;;
71174;SDS011;58876;51.994;4.472;2022-11-11T11:38:05;18.11;;;18.11;;
71174;SDS011;58876;51.994;4.472;2022-11-11T11:40:51;17.92;;;17.92;;
71174;SDS011;58876;51.994;4.472;2022-11-11T11:43:33;17.59;;;17.59;;
71174;SDS011;58876;51.994;4.472;2022-11-11T11:46:05;17.07;;;16.92;;
71174;SDS011;58876;51.994;4.472;2022-11-11T11:51:29;16.51;;;16.51;;
71174;SDS011;58876;51.994;4.472;2022-11-11T11:56:59;41.92;;;41.92;;
71174;SDS011;58876;51.994;4.472;2022-11-11T11:59:38;17.32;;;16.98;;
71174;SDS011;58876;51.994;4.472;2022-11-11T12:05:01;16.12;;;16.12;;
71174;SDS011;58876;51.994;4.472;2022-11-11T12:07:59;16.11;;;15.97;;
71174;SDS011;58876;51.994;4.472;2022-11-11T12:10:45;15.88;;;15.86;;
71174;SDS011;58876;51.994;4.472;2022-11-11T12:13:34;15.78;;;15.74;;
71174;SDS011;58876;51.994;4.472;2022-11-11T12:16:34;15.63;;;15.62;;
71174;SDS011;58876;51.994;4.472;2022-11-11T12:19:19;15.07;;;14.82;;
71174;SDS011;58876;51.994;4.472;2022-11-11T12:25:14;14.25;;;14.15;;
71174;SDS011;58876;51.994;4.472;2022-11-11T12:27:50;13.87;;;13.86;;
71174;SDS011;58876;51.994;4.472;2022-11-11T12:30:37;14.72;;;14.60;;
71174;SDS011;58876;51.994;4.472;2022-11-11T12:43:57;12.70;;;12.70;;
71174;SDS011;58876;51.994;4.472;2022-11-11T12:49:06;12.03;;;12.03;;
71174;SDS011;58876;51.994;4.472;2022-11-11T12:57:01;11.59;;;11.59;;
71174;SDS011;58876;51.994;4.472;2022-11-11T13:00:04;11.22;;;11.22;;
71174;SDS011;58876;51.994;4.472;2022-11-11T13:05:21;10.85;;;10.85;;
71174;SDS011;58876;51.994;4.472;2022-11-11T13:08:05;10.50;;;10.50;;
71174;SDS011;58876;51.994;4.472;2022-11-11T13:10:59;10.24;;;10.24;;
71174;SDS011;58876;51.994;4.472;2022-11-11T13:16:53;9.50;;;9.48;;
71174;SDS011;58876;51.994;4.472;2022-11-11T13:19:35;9.18;;;9.18;;
71174;SDS011;58876;51.994;4.472;2022-11-11T13:22:22;9.27;;;9.27;;
71174;SDS011;58876;51.994;4.472;2022-11-11T13:24:53;9.24;;;9.24;;
71174;SDS011;58876;51.994;4.472;2022-11-11T13:30:03;8.53;;;8.53;;
71174;SDS011;58876;51.994;4.472;2022-11-11T13:32:41;8.99;;;8.99;;
71174;SDS011;58876;51.994;4.472;2022-11-11T13:35:28;8.59;;;8.59;;
71174;SDS011;58876;51.994;4.472;2022-11-11T13:38:01;8.36;;;8.36;;
71174;SDS011;58876;51.994;4.472;2022-11-11T13:40:32;8.33;;;8.33;;
71174;SDS011;58876;51.994;4.472;2022-11-11T13:43:01;15.59;;;15.59;;
71174;SDS011;58876;51.994;4.472;2022-11-11T13:45:31;23.84;;;23.84;;
71174;SDS011;58876;51.994;4.472;2022-11-11T13:48:01;7.87;;;7.87;;
71174;SDS011;58876;51.994;4.472;2022-11-11T13:50:36;7.73;;;7.73;;
71174;SDS011;58876;51.994;4.472;2022-11-11T13:53:05;7.87;;;7.87;;
71174;SDS011;58876;51.994;4.472;2022-11-11T13:58:07;7.32;;;7.32;;
71174;SDS011;58876;51.994;4.472;2022-11-11T14:00:54;7.30;;;7.30;;
71174;SDS011;58876;51.994;4.472;2022-11-11T14:06:27;7.75;;;7.75;;
71174;SDS011;58876;51.994;4.472;2022-11-11T14:11:25;7.73;;;7.73;;
71174;SDS011;58876;51.994;4.472;2022-11-11T14:13:58;7.51;;;7.51;;
71174;SDS011;58876;51.994;4.472;2022-11-11T14:16:59;7.49;;;7.49;;
71174;SDS011;58876;51.994;4.472;2022-11-11T14:19:28;7.14;;;7.14;;
71174;SDS011;58876;51.994;4.472;2022-11-11T14:27:24;7.32;;;7.32;;
71174;SDS011;58876;51.994;4.472;2022-11-11T14:29:52;7.31;;;7.31;;
71174;SDS011;58876;51.994;4.472;2022-11-11T14:35:28;7.07;;;7.07;;
71174;SDS011;58876;51.994;4.472;2022-11-11T14:40:49;7.29;;;7.29;;
71174;SDS011;58876;51.994;4.472;2022-11-11T14:45:59;7.20;;;7.20;;
71174;SDS011;58876;51.994;4.472;2022-11-11T14:54:03;7.25;;;7.25;;
71174;SDS011;58876;51.994;4.472;2022-11-11T14:56:39;6.99;;;6.99;;
71174;SDS011;58876;51.994;4.472;2022-11-11T14:59:06;7.00;;;7.00;;
71174;SDS011;58876;51.994;4.472;2022-11-11T15:01:37;6.97;;;6.97;;
71174;SDS011;58876;51.994;4.472;2022-11-11T15:04:03;6.94;;;6.94;;
71174;SDS011;58876;51.994;4.472;2022-11-11T15:09:10;7.22;;;7.22;;
71174;SDS011;58876;51.994;4.472;2022-11-11T15:11:59;6.83;;;6.83;;
71174;SDS011;58876;51.994;4.472;2022-11-11T15:14:45;8.26;;;8.26;;
71174;SDS011;58876;51.994;4.472;2022-11-11T15:17:37;9.82;;;9.82;;
71174;SDS011;58876;51.994;4.472;2022-11-11T15:20:41;11.39;;;11.39;;
71174;SDS011;58876;51.994;4.472;2022-11-11T15:29:04;7.71;;;7.71;;
71174;SDS011;58876;51.994;4.472;2022-11-11T15:32:04;18.77;;;18.76;;
71174;SDS011;58876;51.994;4.472;2022-11-11T15:37:36;9.69;;;9.69;;
71174;SDS011;58876;51.994;4.472;2022-11-11T15:40:01;8.44;;;8.44;;
71174;SDS011;58876;51.994;4.472;2022-11-11T15:44:56;10.96;;;10.96;;
71174;SDS011;58876;51.994;4.472;2022-11-11T15:47:26;9.11;;;9.11;;
71174;SDS011;58876;51.994;4.472;2022-11-11T15:49:53;8.62;;;8.62;;
71174;SDS011;58876;51.994;4.472;2022-11-11T15:54:47;22.97;;;22.97;;
71174;SDS011;58876;51.994;4.472;2022-11-11T15:57:23;17.76;;;17.76;;
71174;SDS011;58876;51.994;4.472;2022-11-11T15:59:57;9.03;;;9.03;;
71174;SDS011;58876;51.994;4.472;2022-11-11T16:02:27;9.64;;;9.64;;
71174;SDS011;58876;51.994;4.472;2022-11-11T16:04:58;8.20;;;8.20;;
71174;SDS011;58876;51.994;4.472;2022-11-11T16:07:41;8.08;;;8.08;;
71174;SDS011;58876;51.994;4.472;2022-11-11T16:10:08;9.25;;;9.25;;
71174;SDS011;58876;51.994;4.472;2022-11-11T16:12:44;10.35;;;10.34;;
71174;SDS011;58876;51.994;4.472;2022-11-11T16:15:25;10.61;;;10.59;;
71174;SDS011;58876;51.994;4.472;2022-11-11T16:18:13;11.50;;;11.49;;
71174;SDS011;58876;51.994;4.472;2022-11-11T16:20:50;12.50;;;12.50;;
71174;SDS011;58876;51.994;4.472;2022-11-11T16:23:30;12.64;;;12.64;;
71174;SDS011;58876;51.994;4.472;2022-11-11T16:25:57;10.78;;;10.78;;
71174;SDS011;58876;51.994;4.472;2022-11-11T16:28:27;11.15;;;11.15;;
71174;SDS011;58876;51.994;4.472;2022-11-11T16:31:19;10.92;;;10.92;;
71174;SDS011;58876;51.994;4.472;2022-11-11T16:33:45;11.18;;;11.18;;